createdAt,value
2018-07-15T00:02:17.057Z,6.67
2018-07-15T00:04:45.114Z,6.37
2018-07-15T00:07:13.196Z,6.10
2018-07-15T00:09:41.286Z,6.63
2018-07-15T00:12:09.447Z,7.97
2018-07-15T00:14:37.530Z,7.03
2018-07-15T00:17:05.671Z,6.70
2018-07-15T00:19:33.747Z,6.40
2018-07-15T00:22:01.844Z,7.10
2018-07-15T00:24:29.901Z,7.03
2018-07-15T00:26:57.967Z,7.67
2018-07-15T00:29:26.027Z,6.90
2018-07-15T00:31:54.097Z,6.87
2018-07-15T00:34:22.162Z,8.17
2018-07-15T00:36:50.234Z,8.97
2018-07-15T00:39:18.323Z,7.43
2018-07-15T00:41:46.437Z,5.60
2018-07-15T00:44:14.482Z,6.77
2018-07-15T00:46:42.547Z,6.37
2018-07-15T00:49:10.615Z,7.33
2018-07-15T00:51:38.695Z,6.33
2018-07-15T00:54:06.760Z,7.17
2018-07-15T00:56:35.479Z,9.63
2018-07-15T00:59:03.607Z,6.03
2018-07-15T01:01:31.746Z,8.00
2018-07-15T01:03:59.895Z,7.20
2018-07-15T01:06:28.068Z,6.87
2018-07-15T01:08:56.236Z,7.30
2018-07-15T01:11:24.455Z,12.53
2018-07-15T01:13:52.596Z,6.97
2018-07-15T01:16:20.656Z,5.90
2018-07-15T01:18:48.720Z,6.47
2018-07-15T01:21:16.777Z,7.00
2018-07-15T01:23:44.856Z,5.97
2018-07-15T01:26:12.916Z,7.33
2018-07-15T01:28:41.110Z,7.00
2018-07-15T01:31:09.291Z,6.93
2018-07-15T01:33:37.500Z,7.13
2018-07-15T01:36:05.697Z,11.93
2018-07-15T01:38:33.905Z,7.20
2018-07-15T01:41:02.071Z,6.93
2018-07-15T01:43:30.280Z,9.10
2018-07-15T01:45:58.448Z,8.63
2018-07-15T01:48:26.672Z,7.40
2018-07-15T01:50:54.877Z,7.47
2018-07-15T01:53:23.080Z,6.40
2018-07-15T01:55:51.262Z,6.20
2018-07-15T01:58:19.452Z,7.20
2018-07-15T02:00:47.632Z,9.63
2018-07-15T02:03:15.920Z,6.37
2018-07-15T02:05:44.105Z,7.00
2018-07-15T02:08:12.296Z,6.50
2018-07-15T02:10:41.009Z,6.83
2018-07-15T02:13:09.236Z,7.10
2018-07-15T02:15:37.436Z,7.93
2018-07-15T02:18:04.670Z,7.00
2018-07-15T02:20:32.855Z,6.93
2018-07-15T02:23:01.077Z,7.03
2018-07-15T02:25:29.234Z,7.50
2018-07-15T02:27:57.427Z,7.13
2018-07-15T02:30:25.648Z,7.23
2018-07-15T02:32:53.847Z,6.10
2018-07-15T02:35:22.093Z,6.03
2018-07-15T02:37:50.922Z,7.47
2018-07-15T02:40:19.093Z,6.50
2018-07-15T02:42:47.390Z,9.03
2018-07-15T02:45:15.676Z,6.80
2018-07-15T02:47:43.862Z,7.40
2018-07-15T02:50:12.312Z,6.43
2018-07-15T02:52:40.681Z,6.97
2018-07-15T02:55:08.880Z,10.53
2018-07-15T02:57:37.073Z,7.30
2018-07-15T03:00:05.552Z,6.67
2018-07-15T03:02:33.730Z,8.70
2018-07-15T03:05:01.917Z,6.17
2018-07-15T03:07:30.110Z,7.23
2018-07-15T03:09:58.393Z,8.93
2018-07-15T03:12:26.597Z,6.73
2018-07-15T03:14:54.859Z,7.90
2018-07-15T03:17:23.044Z,6.57
2018-07-15T03:19:51.003Z,7.83
2018-07-15T03:22:19.263Z,6.90
2018-07-15T03:24:47.432Z,6.70
2018-07-15T03:27:15.624Z,7.37
2018-07-15T03:29:43.804Z,7.03
2018-07-15T03:32:11.987Z,7.80
2018-07-15T03:34:40.174Z,8.33
2018-07-15T03:37:08.408Z,6.87
2018-07-15T03:39:36.596Z,7.00
2018-07-15T03:42:05.645Z,7.03
2018-07-15T03:44:33.828Z,9.07
2018-07-15T03:47:02.033Z,6.97
2018-07-15T03:49:30.241Z,7.27
2018-07-15T03:51:58.423Z,9.60
2018-07-15T03:54:26.621Z,7.27
2018-07-15T03:56:54.807Z,7.00
2018-07-15T03:59:23.007Z,6.90
2018-07-15T04:01:51.266Z,7.10
2018-07-15T04:04:19.457Z,6.33
2018-07-15T04:06:47.653Z,7.57
2018-07-15T04:09:16.380Z,7.40
2018-07-15T04:11:44.580Z,6.70
2018-07-15T04:14:12.789Z,12.93
2018-07-15T04:16:40.975Z,7.90
2018-07-15T04:19:09.155Z,7.10
2018-07-15T04:21:37.345Z,8.00
2018-07-15T04:24:05.616Z,7.67
2018-07-15T04:26:33.783Z,7.23
2018-07-15T04:29:01.958Z,7.37
2018-07-15T04:31:30.138Z,7.97
2018-07-15T04:33:58.332Z,8.20
2018-07-15T04:36:26.539Z,7.67
2018-07-15T04:38:54.752Z,8.10
2018-07-15T04:41:22.928Z,7.37
2018-07-15T04:43:51.183Z,7.53
2018-07-15T04:46:19.343Z,7.47
2018-07-15T04:48:47.531Z,7.20
2018-07-15T04:51:15.732Z,6.37
2018-07-15T04:53:44.070Z,6.60
2018-07-15T04:56:12.241Z,8.17
2018-07-15T04:58:40.424Z,7.30
2018-07-15T05:01:08.576Z,7.70
2018-07-15T05:03:36.767Z,7.70
2018-07-15T05:06:05.131Z,8.10
2018-07-15T05:08:33.325Z,8.17
2018-07-15T05:11:01.519Z,7.20
2018-07-15T05:13:29.747Z,7.30
2018-07-15T05:15:57.936Z,8.57
2018-07-15T05:18:32.442Z,7.70
2018-07-15T05:21:00.535Z,7.10
2018-07-15T05:23:28.732Z,7.27
2018-07-15T05:25:56.946Z,7.17
2018-07-15T05:28:25.165Z,7.80
2018-07-15T05:30:53.453Z,7.80
2018-07-15T05:33:21.671Z,7.87
2018-07-15T05:35:49.877Z,8.00
2018-07-15T05:38:18.057Z,11.23
2018-07-15T05:40:46.249Z,6.93
2018-07-15T05:43:14.435Z,8.20
2018-07-15T05:45:42.632Z,8.63
2018-07-15T05:48:10.849Z,12.53
2018-07-15T05:50:39.043Z,7.73
2018-07-15T05:53:06.364Z,7.10
2018-07-15T05:55:34.563Z,6.80
2018-07-15T05:58:02.775Z,6.57
2018-07-15T06:00:30.940Z,6.73
2018-07-15T06:02:59.099Z,6.07
2018-07-15T06:05:27.256Z,6.70
2018-07-15T06:07:55.430Z,6.83
2018-07-15T06:10:23.644Z,7.63
2018-07-15T06:12:51.816Z,7.20
2018-07-15T06:15:20.016Z,6.80
2018-07-15T06:17:48.205Z,6.30
2018-07-15T06:20:16.405Z,7.50
2018-07-15T06:22:44.652Z,7.50
2018-07-15T06:25:12.763Z,7.00
2018-07-15T06:27:40.952Z,7.40
2018-07-15T06:30:09.129Z,6.33
2018-07-15T06:32:37.280Z,6.50
2018-07-15T06:35:06.019Z,7.23
2018-07-15T06:37:34.087Z,7.40
2018-07-15T06:40:02.169Z,8.10
2018-07-15T06:42:30.248Z,6.73
2018-07-15T06:44:59.352Z,6.33
2018-07-15T06:47:27.409Z,5.80
2018-07-15T06:49:55.490Z,8.47
2018-07-15T06:52:23.586Z,5.63
2018-07-15T06:54:51.762Z,6.63
2018-07-15T06:57:19.915Z,6.80
2018-07-15T06:59:48.031Z,5.67
2018-07-15T07:02:16.084Z,7.30
2018-07-15T07:04:44.163Z,7.60
2018-07-15T07:07:12.265Z,6.13
2018-07-15T07:09:40.295Z,6.90
2018-07-15T07:12:08.806Z,6.50
2018-07-15T07:14:36.884Z,6.80
2018-07-15T07:17:04.940Z,7.37
2018-07-15T07:19:33.011Z,7.10
2018-07-15T07:22:04.853Z,6.80
2018-07-15T07:24:32.962Z,6.07
2018-07-15T07:27:01.213Z,5.80
2018-07-15T07:29:29.458Z,6.23
2018-07-15T07:31:57.689Z,6.57
2018-07-15T07:34:25.902Z,6.63
2018-07-15T07:36:54.186Z,6.80
2018-07-15T07:39:22.470Z,6.90
2018-07-15T07:41:50.644Z,7.00
2018-07-15T07:44:19.866Z,8.80
2018-07-15T07:46:48.124Z,6.10
2018-07-15T07:49:16.304Z,7.87
2018-07-15T07:51:46.915Z,6.37
2018-07-15T07:54:16.640Z,5.80
2018-07-15T07:56:44.873Z,6.30
2018-07-15T07:59:13.402Z,7.93
2018-07-15T08:01:41.665Z,5.77
2018-07-15T08:04:09.878Z,6.27
2018-07-15T08:06:38.158Z,6.13
2018-07-15T08:09:06.982Z,6.37
2018-07-15T08:11:35.286Z,5.70
2018-07-15T08:14:03.518Z,5.83
2018-07-15T08:16:31.861Z,5.80
2018-07-15T08:19:02.645Z,10.00
2018-07-15T08:21:31.017Z,4.90
2018-07-15T08:23:59.289Z,5.47
2018-07-15T08:26:27.671Z,5.80
2018-07-15T08:28:55.915Z,5.97
2018-07-15T08:31:24.149Z,5.93
2018-07-15T08:33:52.366Z,5.53
2018-07-15T08:36:20.588Z,5.60
2018-07-15T08:38:48.811Z,5.77
2018-07-15T08:41:17.024Z,5.50
2018-07-15T08:43:45.196Z,5.73
2018-07-15T08:46:13.487Z,6.30
2018-07-15T08:48:41.680Z,6.13
2018-07-15T08:51:09.878Z,6.13
2018-07-15T08:53:38.028Z,7.40
2018-07-15T08:56:06.108Z,6.30
2018-07-15T08:58:34.172Z,7.73
2018-07-15T09:01:02.314Z,6.87
2018-07-15T09:03:30.352Z,5.53
2018-07-15T09:05:58.448Z,6.10
2018-07-15T09:08:26.515Z,5.50
2018-07-15T09:10:54.711Z,7.17
2018-07-15T09:13:22.760Z,5.80
2018-07-15T09:15:50.865Z,5.03
2018-07-15T09:18:18.967Z,5.47
2018-07-15T09:20:47.025Z,5.83
2018-07-15T09:23:15.103Z,5.20
2018-07-15T09:25:43.189Z,5.30
2018-07-15T09:28:11.252Z,5.23
2018-07-15T09:30:39.323Z,4.73
2018-07-15T09:33:07.411Z,7.10
2018-07-15T09:35:35.539Z,4.53
2018-07-15T09:38:03.572Z,4.60
2018-07-15T09:40:31.653Z,4.73
2018-07-15T09:42:59.699Z,6.43
2018-07-15T09:45:27.816Z,4.67
2018-07-15T09:47:55.912Z,4.50
2018-07-15T09:50:24.014Z,4.20
2018-07-15T09:52:52.091Z,5.23
2018-07-15T09:55:20.188Z,4.50
2018-07-15T09:57:48.279Z,4.80
2018-07-15T10:00:21.695Z,4.70
2018-07-15T10:02:49.787Z,5.17
2018-07-15T10:05:17.847Z,5.20
2018-07-15T10:07:45.955Z,5.00
2018-07-15T10:10:14.206Z,4.63
2018-07-15T10:12:42.298Z,5.00
2018-07-15T10:15:10.467Z,5.50
2018-07-15T10:17:38.572Z,5.83
2018-07-15T10:20:06.716Z,6.50
2018-07-15T10:22:34.786Z,4.90
2018-07-15T10:25:02.852Z,6.33
2018-07-15T10:27:30.941Z,4.63
2018-07-15T10:29:59.007Z,4.83
2018-07-15T10:32:27.099Z,7.00
2018-07-15T10:34:55.160Z,5.70
2018-07-15T10:37:23.264Z,4.93
2018-07-15T10:39:51.444Z,4.60
2018-07-15T10:42:19.625Z,4.73
2018-07-15T10:44:47.988Z,4.90
2018-07-15T10:47:16.206Z,5.87
2018-07-15T10:49:44.396Z,4.37
2018-07-15T10:52:12.586Z,4.30
2018-07-15T10:54:40.776Z,5.00
2018-07-15T10:57:08.965Z,4.53
2018-07-15T10:59:37.155Z,5.13
2018-07-15T11:02:05.404Z,4.57
2018-07-15T11:04:33.607Z,5.30
2018-07-15T11:07:01.801Z,6.27
2018-07-15T11:09:29.991Z,5.73
2018-07-15T11:11:58.184Z,4.00
2018-07-15T11:14:26.376Z,4.93
2018-07-15T11:16:54.579Z,5.43
2018-07-15T11:19:22.751Z,4.30
2018-07-15T11:21:50.995Z,4.60
2018-07-15T11:24:19.188Z,4.77
2018-07-15T11:26:47.496Z,4.40
2018-07-15T11:29:15.695Z,4.77
2018-07-15T11:31:43.881Z,4.17
2018-07-15T11:34:12.076Z,4.93
2018-07-15T11:36:40.300Z,4.70
2018-07-15T11:39:09.465Z,4.07
2018-07-15T11:41:37.603Z,4.13
2018-07-15T11:44:05.988Z,3.80
2018-07-15T11:46:34.180Z,4.27
2018-07-15T11:49:02.476Z,4.00
2018-07-15T11:51:30.683Z,3.10
2018-07-15T11:53:58.874Z,3.50
2018-07-15T11:56:27.060Z,3.13
2018-07-15T11:58:55.243Z,3.30
2018-07-15T12:01:23.416Z,3.93
2018-07-15T12:03:51.554Z,2.60
2018-07-15T12:06:19.619Z,3.07
2018-07-15T12:08:47.689Z,3.70
2018-07-15T12:11:15.765Z,2.87
2018-07-15T12:13:43.854Z,3.10
2018-07-15T12:16:11.907Z,2.70
2018-07-15T12:18:39.971Z,2.87
2018-07-15T12:21:08.040Z,3.03
2018-07-15T12:23:36.120Z,3.30
2018-07-15T12:26:04.178Z,2.40
2018-07-15T12:28:32.258Z,3.37
2018-07-15T12:31:00.323Z,3.07
2018-07-15T12:33:28.403Z,3.13
2018-07-15T12:35:56.452Z,2.93
2018-07-15T12:38:24.570Z,3.37
2018-07-15T12:40:52.649Z,3.50
2018-07-15T12:43:20.788Z,3.83
2018-07-15T12:45:48.777Z,2.80
2018-07-15T12:48:16.887Z,2.93
2018-07-15T12:50:44.940Z,3.07
2018-07-15T12:53:13.017Z,3.17
2018-07-15T12:55:41.058Z,4.17
2018-07-15T12:58:09.127Z,3.20
2018-07-15T13:00:37.207Z,2.57
2018-07-15T13:03:05.277Z,3.60
2018-07-15T13:05:33.344Z,3.23
2018-07-15T13:08:01.432Z,4.33
2018-07-15T13:10:30.490Z,4.80
2018-07-15T13:12:58.607Z,2.53
2018-07-15T13:15:26.735Z,2.50
2018-07-15T13:17:54.858Z,3.33
2018-07-15T13:20:23.040Z,2.73
2018-07-15T13:22:51.240Z,3.10
2018-07-15T13:25:19.458Z,3.33
2018-07-15T13:27:47.646Z,2.80
2018-07-15T13:30:15.844Z,3.40
2018-07-15T13:32:44.023Z,3.27
2018-07-15T13:35:12.232Z,2.70
2018-07-15T13:37:40.422Z,2.60
2018-07-15T13:40:08.741Z,2.73
2018-07-15T13:42:37.018Z,3.50
2018-07-15T13:45:05.214Z,3.30
2018-07-15T13:47:33.399Z,4.90
2018-07-15T13:50:01.598Z,3.50
2018-07-15T13:52:29.775Z,3.10
2018-07-15T13:54:57.985Z,2.73
2018-07-15T13:57:26.184Z,2.90
2018-07-15T13:59:54.380Z,2.80
2018-07-15T14:02:22.568Z,2.30
2018-07-15T14:04:50.735Z,2.70
2018-07-15T14:07:19.108Z,3.20
2018-07-15T14:09:47.308Z,7.17
2018-07-15T14:12:15.475Z,4.33
2018-07-15T14:14:43.663Z,2.50
2018-07-15T14:17:11.865Z,2.93
2018-07-15T14:19:40.075Z,2.70
2018-07-15T14:22:08.236Z,2.47
2018-07-15T14:24:36.438Z,2.87
2018-07-15T14:27:04.671Z,2.37
2018-07-15T14:29:32.862Z,3.27
2018-07-15T14:32:01.028Z,2.60
2018-07-15T14:34:29.238Z,2.10
2018-07-15T14:36:57.430Z,3.23
2018-07-15T14:39:34.231Z,2.70
2018-07-15T14:42:02.715Z,2.50
2018-07-15T14:44:30.938Z,2.90
2018-07-15T14:46:59.121Z,2.20
2018-07-15T14:49:27.412Z,2.30
2018-07-15T14:51:56.193Z,3.10
2018-07-15T14:54:25.214Z,2.50
2018-07-15T14:56:53.571Z,2.07
2018-07-15T14:59:22.128Z,3.23
2018-07-15T15:01:50.386Z,2.10
2018-07-15T15:04:18.709Z,2.10
2018-07-15T15:06:47.040Z,2.50
2018-07-15T15:09:15.425Z,18.93
2018-07-15T15:11:44.184Z,2.93
2018-07-15T15:14:12.784Z,4.10
2018-07-15T15:16:40.967Z,2.40
2018-07-15T15:19:09.187Z,2.20
2018-07-15T15:21:37.372Z,2.20
2018-07-15T15:24:07.767Z,2.20
2018-07-15T15:26:35.957Z,3.20
2018-07-15T15:29:04.169Z,11.37
2018-07-15T15:31:32.360Z,3.30
2018-07-15T15:34:00.598Z,2.50
2018-07-15T15:36:28.799Z,3.07
2018-07-15T15:38:56.991Z,2.57
2018-07-15T15:41:25.760Z,3.17
2018-07-15T15:43:54.054Z,2.10
2018-07-15T15:46:23.632Z,5.97
2018-07-15T15:48:51.960Z,5.07
2018-07-15T15:51:20.234Z,3.50
2018-07-15T15:53:48.590Z,3.40
2018-07-15T15:56:16.832Z,2.83
2018-07-15T15:58:45.099Z,2.83
2018-07-15T16:01:13.363Z,2.33
2018-07-15T16:03:41.880Z,2.10
2018-07-15T16:06:10.146Z,2.13
2018-07-15T16:08:38.436Z,3.20
2018-07-15T16:11:06.677Z,2.50
2018-07-15T16:13:34.926Z,2.67
2018-07-15T16:16:03.208Z,2.40
2018-07-15T16:18:31.451Z,2.27
2018-07-15T16:20:59.775Z,1.90
2018-07-15T16:23:28.033Z,2.47
2018-07-15T16:25:56.313Z,1.80
2018-07-15T16:28:24.590Z,2.07
2018-07-15T16:30:52.964Z,2.40
2018-07-15T16:33:21.218Z,2.23
2018-07-15T16:35:49.508Z,3.13
2018-07-15T16:38:17.738Z,2.57
2018-07-15T16:40:45.986Z,3.07
2018-07-15T16:43:14.221Z,2.37
2018-07-15T16:45:46.922Z,6.90
2018-07-15T16:48:19.032Z,3.20
2018-07-15T16:50:47.262Z,3.63
2018-07-15T16:53:15.742Z,3.60
2018-07-15T16:55:44.097Z,2.90
2018-07-15T16:58:12.650Z,3.07
2018-07-15T17:00:41.055Z,4.13
2018-07-15T17:03:09.356Z,4.97
2018-07-15T17:05:37.549Z,4.03
2018-07-15T17:08:10.354Z,4.03
2018-07-15T17:10:38.629Z,5.07
2018-07-15T17:13:06.969Z,4.93
2018-07-15T17:15:35.240Z,4.77
2018-07-15T17:18:03.520Z,5.07
2018-07-15T17:20:31.774Z,4.80
2018-07-15T17:23:00.002Z,4.70
2018-07-15T17:25:28.360Z,4.80
2018-07-15T17:27:56.667Z,4.10
2018-07-15T17:30:25.185Z,4.40
2018-07-15T17:32:53.415Z,5.30
2018-07-15T17:35:21.657Z,6.07
2018-07-15T17:37:49.873Z,6.47
2018-07-15T17:40:18.036Z,5.83
2018-07-15T17:42:46.179Z,5.23
2018-07-15T17:45:14.260Z,6.47
2018-07-15T17:47:42.401Z,8.17
2018-07-15T17:50:10.512Z,7.03
2018-07-15T17:52:38.713Z,7.13
2018-07-15T17:55:06.918Z,7.20
2018-07-15T17:57:35.057Z,7.23
2018-07-15T18:00:03.442Z,7.57
2018-07-15T18:02:31.500Z,9.33
2018-07-15T18:04:59.642Z,7.87
2018-07-15T18:07:27.649Z,7.07
2018-07-15T18:09:55.731Z,7.50
2018-07-15T18:12:23.851Z,7.93
2018-07-15T18:14:51.930Z,8.40
2018-07-15T18:17:20.007Z,9.70
2018-07-15T18:19:48.073Z,8.00
2018-07-15T18:22:16.215Z,8.20
2018-07-15T18:24:44.271Z,8.90
2018-07-15T18:27:12.392Z,10.53
2018-07-15T18:29:40.499Z,8.13
2018-07-15T18:32:08.563Z,7.40
2018-07-15T18:34:36.633Z,6.50
2018-07-15T18:37:06.792Z,6.47
2018-07-15T18:39:34.864Z,6.57
2018-07-15T18:42:02.942Z,6.77
2018-07-15T18:44:31.079Z,6.13
2018-07-15T18:46:59.195Z,9.70
2018-07-15T18:49:27.489Z,5.70
2018-07-15T18:51:56.237Z,6.40
2018-07-15T18:54:24.368Z,5.57
2018-07-15T18:56:52.625Z,6.63
2018-07-15T18:59:21.345Z,8.70
2018-07-15T19:01:50.400Z,6.07
2018-07-15T19:04:18.644Z,6.53
2018-07-15T19:06:47.828Z,6.13
2018-07-15T19:09:15.919Z,8.10
2018-07-15T19:11:44.074Z,6.80
2018-07-15T19:14:12.239Z,5.73
2018-07-15T19:16:40.500Z,6.63
2018-07-15T19:19:08.620Z,6.37
2018-07-15T19:21:36.761Z,6.50
2018-07-15T19:24:04.879Z,6.40
2018-07-15T19:26:33.048Z,6.50
2018-07-15T19:29:01.157Z,5.80
2018-07-15T19:31:29.377Z,6.87
2018-07-15T19:33:58.319Z,5.50
2018-07-15T19:36:29.180Z,6.27
2018-07-15T19:38:57.832Z,6.50
2018-07-15T19:41:26.012Z,8.27
2018-07-15T19:43:54.110Z,7.37
2018-07-15T19:46:22.179Z,6.63
2018-07-15T19:48:50.226Z,5.53
2018-07-15T19:51:18.317Z,6.40
2018-07-15T19:53:46.392Z,6.50
2018-07-15T19:56:14.567Z,7.37
2018-07-15T19:58:42.693Z,6.27
2018-07-15T20:01:12.078Z,6.40
2018-07-15T20:03:40.285Z,6.17
2018-07-15T20:06:08.481Z,6.73
2018-07-15T20:08:36.667Z,6.17
2018-07-15T20:11:04.955Z,6.60
2018-07-15T20:13:33.131Z,5.63
2018-07-15T20:16:01.343Z,4.87
2018-07-15T20:18:29.539Z,5.30
2018-07-15T20:20:57.839Z,6.20
2018-07-15T20:23:25.983Z,5.97
2018-07-15T20:25:54.220Z,6.67
2018-07-15T20:28:22.419Z,6.73
2018-07-15T20:30:50.603Z,7.20
2018-07-15T20:33:18.785Z,6.33
2018-07-15T20:35:47.036Z,6.10
2018-07-15T20:38:15.252Z,5.97
2018-07-15T20:40:43.468Z,6.93
2018-07-15T20:43:12.284Z,5.87
2018-07-15T20:45:40.472Z,6.50
2018-07-15T20:48:08.785Z,7.23
2018-07-15T20:50:36.987Z,6.20
2018-07-15T20:53:05.817Z,9.17
2018-07-15T20:55:34.021Z,6.23
2018-07-15T20:58:02.233Z,6.17
2018-07-15T21:00:30.431Z,9.60
2018-07-15T21:02:58.616Z,7.30
2018-07-15T21:05:26.849Z,6.10
2018-07-15T21:07:55.041Z,7.33
2018-07-15T21:10:23.220Z,7.30
2018-07-15T21:12:51.405Z,9.00
2018-07-15T21:15:19.623Z,6.93
2018-07-15T21:17:47.856Z,7.33
2018-07-15T21:20:16.137Z,7.00
2018-07-15T21:22:44.298Z,7.43
2018-07-15T21:25:13.117Z,7.53
2018-07-15T21:27:41.297Z,8.73
2018-07-15T21:30:09.498Z,7.53
2018-07-15T21:32:37.706Z,6.80
2018-07-15T21:35:05.986Z,7.53
2018-07-15T21:37:34.201Z,6.47
2018-07-15T21:40:02.364Z,6.23
2018-07-15T21:42:30.567Z,5.73
2018-07-15T21:44:58.748Z,6.63
2018-07-15T21:47:26.977Z,6.47
2018-07-15T21:49:55.151Z,7.57
2018-07-15T21:52:23.368Z,6.60
2018-07-15T21:54:51.552Z,6.97
2018-07-15T21:57:19.741Z,6.83
2018-07-15T21:59:47.922Z,6.10
2018-07-15T22:02:16.128Z,5.97
2018-07-15T22:04:44.412Z,5.93
2018-07-15T22:07:24.043Z,8.67
2018-07-15T22:09:58.737Z,6.13
2018-07-15T22:12:26.972Z,8.20
2018-07-15T22:14:55.188Z,6.30
2018-07-15T22:17:23.410Z,6.53
2018-07-15T22:19:51.586Z,6.00
2018-07-15T22:22:20.734Z,6.43
2018-07-15T22:24:48.915Z,5.50
2018-07-15T22:27:17.116Z,8.77
2018-07-15T22:29:45.336Z,6.30
2018-07-15T22:32:13.518Z,5.80
2018-07-15T22:34:41.702Z,5.93
2018-07-15T22:37:09.888Z,5.30
2018-07-15T22:39:38.075Z,5.43
2018-07-15T22:42:06.409Z,6.23
2018-07-15T22:44:34.595Z,5.30
2018-07-15T22:47:02.787Z,6.33
2018-07-15T22:49:30.975Z,6.23
2018-07-15T22:51:59.969Z,6.07
2018-07-15T22:54:28.194Z,5.27
2018-07-15T22:56:56.392Z,6.10
2018-07-15T22:59:24.596Z,6.77
2018-07-15T23:01:52.799Z,6.20
2018-07-15T23:04:37.084Z,5.43
2018-07-15T23:07:05.289Z,4.97
2018-07-15T23:09:33.462Z,5.57
2018-07-15T23:12:01.652Z,5.40
2018-07-15T23:14:29.849Z,5.23
2018-07-15T23:16:58.069Z,5.70
2018-07-15T23:19:26.230Z,6.10
2018-07-15T23:21:54.441Z,6.07
2018-07-15T23:24:22.888Z,5.97
2018-07-15T23:26:51.064Z,5.60
2018-07-15T23:29:19.240Z,8.07
2018-07-15T23:31:47.441Z,7.47
2018-07-15T23:34:15.639Z,7.87
2018-07-15T23:36:43.837Z,8.50
2018-07-15T23:39:12.030Z,7.13
2018-07-15T23:41:40.224Z,5.93
2018-07-15T23:44:08.390Z,7.13
2018-07-15T23:46:36.592Z,6.97
2018-07-15T23:49:04.831Z,6.30
2018-07-15T23:51:33.019Z,6.17
2018-07-15T23:54:01.230Z,7.00
2018-07-15T23:56:29.416Z,5.70
2018-07-15T23:58:57.627Z,7.20
